Time,TemperatureF,DewpointF,PressureIn,WindDirection,WindDirectionDegrees,WindSpeedMPH,WindSpeedGustMPH,Humidity,HourlyPrecipIn,Conditions,Clouds,dailyrainin,SoftwareType,DateUTC
2013-02-18 00:03:00,25.0,12.7,29.62,North,-999,0.0,0.0,59,0.00,,,-99.99,FreeWX-Wi 1.02,2013-02-18 05:03:00,
2013-02-18 00:13:00,25.0,12.7,29.62,North,-999,0.0,0.0,59,0.00,,,-99.99,FreeWX-Wi 1.02,2013-02-18 05:13:00,
2013-02-18 00:23:00,24.8,12.9,29.62,North,-999,0.0,0.0,60,0.00,,,-99.99,FreeWX-Wi 1.02,2013-02-18 05:23:00,
2013-02-18 00:33:00,24.8,12.9,29.62,North,-999,0.0,0.0,60,0.00,,,-99.99,FreeWX-Wi 1.02,2013-02-18 05:33:00,
2013-02-18 00:43:00,24.6,12.7,29.62,North,-999,0.0,0.0,60,0.00,,,-99.99,FreeWX-Wi 1.02,2013-02-18 05:43:00,
2013-02-18 00:53:00,24.3,12.7,29.62,North,-999,0.0,0.0,61,0.00,,,-99.99,FreeWX-Wi 1.02,2013-02-18 05:53:00,
2013-02-18 01:03:00,24.4,12.9,29.62,North,-999,0.0,0.0,61,0.00,,,-99.99,FreeWX-Wi 1.02,2013-02-18 06:03:00,
2013-02-18 01:13:00,24.1,12.6,29.65,North,-999,0.0,0.0,61,0.00,,,-99.99,FreeWX-Wi 1.02,2013-02-18 06:13:00,
2013-02-18 01:23:00,23.9,12.7,29.62,North,-999,0.0,0.0,62,0.00,,,-99.99,FreeWX-Wi 1.02,2013-02-18 06:23:00,
2013-02-18 01:33:00,24.1,12.9,29.62,North,-999,0.0,0.0,62,0.00,,,-99.99,FreeWX-Wi 1.02,2013-02-18 06:33:00,
2013-02-18 01:43:00,24.1,12.9,29.65,North,-999,0.0,0.0,62,0.00,,,-99.99,FreeWX-Wi 1.02,2013-02-18 06:43:00,
2013-02-18 01:53:00,23.5,12.4,29.65,North,-999,0.0,0.0,62,0.00,,,-99.99,FreeWX-Wi 1.02,2013-02-18 06:53:00,
2013-02-18 02:03:00,23.7,12.9,29.65,North,-999,0.0,0.0,63,0.00,,,-99.99,FreeWX-Wi 1.02,2013-02-18 07:03:00,
2013-02-18 02:14:00,23.7,12.9,29.65,North,-999,0.0,0.0,63,0.00,,,-99.99,FreeWX-Wi 1.02,2013-02-18 07:14:00,
2013-02-18 02:24:00,23.5,12.7,29.65,North,-999,0.0,0.0,63,0.00,,,-99.99,FreeWX-Wi 1.02,2013-02-18 07:24:00,
2013-02-18 02:34:00,23.4,12.7,29.65,North,-999,0.0,0.0,63,0.00,,,-99.99,FreeWX-Wi 1.02,2013-02-18 07:34:00,
2013-02-18 02:44:00,23.4,12.7,29.65,North,-999,0.0,0.0,63,0.00,,,-99.99,FreeWX-Wi 1.02,2013-02-18 07:44:00,
2013-02-18 02:54:00,23.2,12.9,29.65,North,-999,0.0,0.0,64,0.00,,,-99.99,FreeWX-Wi 1.02,2013-02-18 07:54:00,
2013-02-18 03:04:00,23.4,12.9,29.65,North,-999,0.0,0.0,64,0.00,,,-99.99,FreeWX-Wi 1.02,2013-02-18 08:04:00,
2013-02-18 03:14:00,23.0,12.7,29.65,North,-999,0.0,0.0,64,0.00,,,-99.99,FreeWX-Wi 1.02,2013-02-18 08:14:00,
2013-02-18 03:24:00,22.8,12.6,29.65,North,-999,0.0,0.0,64,0.00,,,-99.99,FreeWX-Wi 1.02,2013-02-18 08:24:00,
2013-02-18 03:34:00,22.8,12.9,29.65,North,-999,0.0,0.0,65,0.00,,,-99.99,FreeWX-Wi 1.02,2013-02-18 08:34:00,
2013-02-18 03:44:00,22.6,12.4,29.65,North,-999,0.0,0.0,64,0.00,,,-99.99,FreeWX-Wi 1.02,2013-02-18 08:44:00,
2013-02-18 03:54:00,22.3,12.4,29.65,North,-999,0.0,0.0,65,0.00,,,-99.99,FreeWX-Wi 1.02,2013-02-18 08:54:00,
2013-02-18 04:04:00,22.3,12.4,29.65,North,-999,0.0,0.0,65,0.00,,,-99.99,FreeWX-Wi 1.02,2013-02-18 09:04:00,
2013-02-18 04:14:00,22.1,12.2,29.65,North,-999,0.0,0.0,65,0.00,,,-99.99,FreeWX-Wi 1.02,2013-02-18 09:14:00,
2013-02-18 04:24:00,22.3,12.4,29.68,North,-999,0.0,0.0,65,0.00,,,-99.99,FreeWX-Wi 1.02,2013-02-18 09:24:00,
2013-02-18 04:34:00,22.1,12.2,29.68,North,-999,0.0,0.0,65,0.00,,,-99.99,FreeWX-Wi 1.02,2013-02-18 09:34:00,
2013-02-18 04:44:00,22.3,12.7,29.68,North,-999,0.0,0.0,66,0.00,,,-99.99,FreeWX-Wi 1.02,2013-02-18 09:44:00,
2013-02-18 04:54:00,22.3,12.7,29.68,North,-999,0.0,0.0,66,0.00,,,-99.99,FreeWX-Wi 1.02,2013-02-18 09:54:00,
2013-02-18 05:04:00,22.1,12.6,29.68,North,-999,0.0,0.0,66,0.00,,,-99.99,FreeWX-Wi 1.02,2013-02-18 10:04:00,
2013-02-18 05:14:00,22.1,12.6,29.68,North,-999,0.0,0.0,66,0.00,,,-99.99,FreeWX-Wi 1.02,2013-02-18 10:14:00,
2013-02-18 05:24:00,22.1,12.6,29.68,North,-999,0.0,0.0,66,0.00,,,-99.99,FreeWX-Wi 1.02,2013-02-18 10:24:00,
2013-02-18 05:34:00,21.9,12.4,29.68,North,-999,0.0,0.0,66,0.00,,,-99.99,FreeWX-Wi 1.02,2013-02-18 10:34:00,
2013-02-18 05:44:00,21.9,12.4,29.68,North,-999,0.0,0.0,66,0.00,,,-99.99,FreeWX-Wi 1.02,2013-02-18 10:44:00,
2013-02-18 05:54:00,21.9,12.7,29.68,North,-999,0.0,0.0,67,0.00,,,-99.99,FreeWX-Wi 1.02,2013-02-18 10:54:00,
2013-02-18 06:04:00,21.9,12.7,29.68,North,-999,0.0,0.0,67,0.00,,,-99.99,FreeWX-Wi 1.02,2013-02-18 11:04:00,
2013-02-18 06:14:00,21.7,12.6,29.71,North,-999,0.0,0.0,67,0.00,,,-99.99,FreeWX-Wi 1.02,2013-02-18 11:14:00,
2013-02-18 06:24:00,21.7,12.6,29.71,North,-999,0.0,0.0,67,0.00,,,-99.99,FreeWX-Wi 1.02,2013-02-18 11:24:00,
2013-02-18 06:34:00,21.6,12.4,29.71,North,-999,0.0,0.0,67,0.00,,,-99.99,FreeWX-Wi 1.02,2013-02-18 11:34:00,
2013-02-18 06:44:00,21.6,12.4,29.71,North,-999,0.0,0.0,67,0.00,,,-99.99,FreeWX-Wi 1.02,2013-02-18 11:44:00,
2013-02-18 06:54:00,21.7,12.6,29.71,North,-999,0.0,0.0,67,0.00,,,-99.99,FreeWX-Wi 1.02,2013-02-18 11:54:00,
2013-02-18 07:04:00,21.4,12.2,29.71,North,-999,0.0,0.0,67,0.00,,,-99.99,FreeWX-Wi 1.02,2013-02-18 12:04:00,
2013-02-18 07:14:00,21.6,12.7,29.71,North,-999,0.0,0.0,68,0.00,,,-99.99,FreeWX-Wi 1.02,2013-02-18 12:14:00,
2013-02-18 07:24:00,21.6,12.7,29.71,North,-999,0.0,0.0,68,0.00,,,-99.99,FreeWX-Wi 1.02,2013-02-18 12:24:00,
2013-02-18 07:34:00,21.6,12.7,29.71,North,-999,0.0,0.0,68,0.00,,,-99.99,FreeWX-Wi 1.02,2013-02-18 12:34:00,
2013-02-18 07:44:00,21.9,12.9,29.71,North,-999,0.0,0.0,68,0.00,,,-99.99,FreeWX-Wi 1.02,2013-02-18 12:44:00,
2013-02-18 07:54:00,21.7,12.9,29.71,North,-999,0.0,0.0,68,0.00,,,-99.99,FreeWX-Wi 1.02,2013-02-18 12:54:00,
2013-02-18 08:04:00,22.1,13.5,29.71,North,-999,0.0,0.0,69,0.00,,,-99.99,FreeWX-Wi 1.02,2013-02-18 13:04:00,
2013-02-18 08:14:00,22.3,13.6,29.71,North,-999,0.0,0.0,69,0.00,,,-99.99,FreeWX-Wi 1.02,2013-02-18 13:14:00,
2013-02-18 08:24:00,22.6,14.0,29.74,North,-999,0.0,0.0,69,0.00,,,-99.99,FreeWX-Wi 1.02,2013-02-18 13:24:00,
2013-02-18 08:34:00,22.8,14.5,29.74,North,-999,0.0,0.0,70,0.00,,,-99.99,FreeWX-Wi 1.02,2013-02-18 13:34:00,
2013-02-18 08:44:00,23.4,15.1,29.74,North,-999,0.0,0.0,70,0.00,,,-99.99,FreeWX-Wi 1.02,2013-02-18 13:44:00,
2013-02-18 08:54:00,23.7,15.4,29.74,North,-999,0.0,0.0,70,0.00,,,-99.99,FreeWX-Wi 1.02,2013-02-18 13:54:00,
2013-02-18 09:04:00,24.3,16.0,29.74,North,-999,0.0,2.7,70,0.00,,,-99.99,FreeWX-Wi 1.02,2013-02-18 14:04:00,
2013-02-18 09:14:00,25.2,17.1,29.74,North,-999,0.0,0.0,71,0.00,,,-99.99,FreeWX-Wi 1.02,2013-02-18 14:14:00,
2013-02-18 09:24:00,25.9,17.8,29.74,North,-999,0.0,3.6,71,0.00,,,-99.99,FreeWX-Wi 1.02,2013-02-18 14:24:00,
2013-02-18 09:34:00,26.4,18.0,29.74,North,-999,0.0,3.1,70,0.00,,,-99.99,FreeWX-Wi 1.02,2013-02-18 14:34:00,
2013-02-18 09:44:00,27.0,18.1,29.74,North,-999,0.0,0.0,69,0.00,,,-99.99,FreeWX-Wi 1.02,2013-02-18 14:44:00,
2013-02-18 09:54:00,27.7,18.1,29.74,North,-999,0.0,3.1,67,0.00,,,-99.99,FreeWX-Wi 1.02,2013-02-18 14:54:00,
2013-02-18 10:04:00,28.4,17.8,29.74,North,-999,0.0,4.0,64,0.00,,,-99.99,FreeWX-Wi 1.02,2013-02-18 15:04:00,
2013-02-18 10:14:00,29.3,18.0,29.74,North,357,1.0,3.6,62,0.00,,,-99.99,FreeWX-Wi 1.02,2013-02-18 15:14:00,
2013-02-18 10:24:00,30.2,17.6,29.74,North,357,1.0,3.6,59,0.00,,,-99.99,FreeWX-Wi 1.02,2013-02-18 15:24:00,
2013-02-18 10:34:00,31.3,16.5,29.74,North,357,1.0,3.1,54,0.00,,,-99.99,FreeWX-Wi 1.02,2013-02-18 15:34:00,
2013-02-18 10:44:00,32.4,16.7,29.74,North,357,1.0,4.0,52,0.00,,,-99.99,FreeWX-Wi 1.02,2013-02-18 15:44:00,
2013-02-18 10:54:00,33.1,16.0,29.74,North,357,1.0,4.0,49,0.00,,,-99.99,FreeWX-Wi 1.02,2013-02-18 15:54:00,
2013-02-18 11:04:00,33.8,15.3,29.74,North,357,2.0,4.0,46,0.00,,,-99.99,FreeWX-Wi 1.02,2013-02-18 16:04:00,
2013-02-18 11:14:00,34.5,15.4,29.74,North,357,1.0,3.6,45,0.00,,,-99.99,FreeWX-Wi 1.02,2013-02-18 16:14:00,
2013-02-18 11:24:00,35.8,15.4,29.74,North,357,1.0,4.5,43,0.00,,,-99.99,FreeWX-Wi 1.02,2013-02-18 16:24:00,
2013-02-18 11:34:00,37.0,15.6,29.74,North,357,1.0,5.4,41,0.00,,,-99.99,FreeWX-Wi 1.02,2013-02-18 16:34:00,
2013-02-18 11:44:00,38.1,16.0,29.74,North,357,1.0,5.4,40,0.00,,,-99.99,FreeWX-Wi 1.02,2013-02-18 16:44:00,
2013-02-18 11:54:00,39.2,16.9,29.71,North,357,1.0,4.0,40,0.00,,,-99.99,FreeWX-Wi 1.02,2013-02-18 16:54:00,
2013-02-18 12:04:00,40.5,17.4,29.71,North,357,1.0,4.0,39,0.00,,,-99.99,FreeWX-Wi 1.02,2013-02-18 17:04:00,
2013-02-18 12:14:00,41.0,18.0,29.71,North,357,1.0,6.3,39,0.00,,,-99.99,FreeWX-Wi 1.02,2013-02-18 17:14:00,
2013-02-18 12:24:00,42.1,18.9,29.71,North,357,1.0,3.6,39,0.00,,,-99.99,FreeWX-Wi 1.02,2013-02-18 17:24:00,
2013-02-18 12:34:00,43.2,19.9,29.71,North,357,1.0,5.4,39,0.00,,,-99.99,FreeWX-Wi 1.02,2013-02-18 17:34:00,
2013-02-18 12:44:00,44.2,20.8,29.71,North,357,1.0,3.6,39,0.00,,,-99.99,FreeWX-Wi 1.02,2013-02-18 17:44:00,
2013-02-18 12:54:00,45.0,20.8,29.68,North,357,1.0,6.3,38,0.00,,,-99.99,FreeWX-Wi 1.02,2013-02-18 17:54:00,
2013-02-18 13:04:00,45.3,20.7,29.68,North,357,2.0,4.9,37,0.00,,,-99.99,FreeWX-Wi 1.02,2013-02-18 18:04:00,
2013-02-18 13:14:00,45.5,20.1,29.68,North,357,2.0,4.9,36,0.00,,,-99.99,FreeWX-Wi 1.02,2013-02-18 18:14:00,
2013-02-18 13:24:00,45.9,20.5,29.68,North,357,2.0,5.4,36,0.00,,,-99.99,FreeWX-Wi 1.02,2013-02-18 18:24:00,
2013-02-18 13:34:00,46.2,20.8,29.68,North,357,2.0,5.4,36,0.00,,,-99.99,FreeWX-Wi 1.02,2013-02-18 18:34:00,
2013-02-18 13:44:00,46.9,20.7,29.65,North,357,2.0,5.4,35,0.00,,,-99.99,FreeWX-Wi 1.02,2013-02-18 18:44:00,
2013-02-18 13:54:00,46.9,20.1,29.65,North,357,1.0,4.9,34,0.00,,,-99.99,FreeWX-Wi 1.02,2013-02-18 18:54:00,
2013-02-18 14:04:00,46.9,19.4,29.65,North,357,1.0,5.4,33,0.00,,,-99.99,FreeWX-Wi 1.02,2013-02-18 19:04:00,
2013-02-18 14:14:00,46.9,20.1,29.65,North,357,2.0,6.3,34,0.00,,,-99.99,FreeWX-Wi 1.02,2013-02-18 19:14:00,
2013-02-18 14:24:00,47.1,20.3,29.65,North,357,2.0,6.3,34,0.00,,,-99.99,FreeWX-Wi 1.02,2013-02-18 19:24:00,
2013-02-18 14:34:00,47.1,19.6,29.65,North,357,2.0,5.4,33,0.00,,,-99.99,FreeWX-Wi 1.02,2013-02-18 19:34:00,
2013-02-18 14:44:00,46.8,19.9,29.65,North,357,2.0,4.0,34,0.00,,,-99.99,FreeWX-Wi 1.02,2013-02-18 19:44:00,
2013-02-18 14:54:00,46.8,19.9,29.65,North,357,2.0,6.3,34,0.00,,,-99.99,FreeWX-Wi 1.02,2013-02-18 19:54:00,
2013-02-18 15:04:00,46.8,19.9,29.65,North,357,2.0,5.8,34,0.00,,,-99.99,FreeWX-Wi 1.02,2013-02-18 20:04:00,
2013-02-18 15:14:00,46.2,19.4,29.65,North,357,2.0,10.5,34,0.00,,,-99.99,FreeWX-Wi 1.02,2013-02-18 20:14:00,
2013-02-18 15:24:00,46.0,18.5,29.62,North,357,1.0,4.0,33,0.00,,,-99.99,FreeWX-Wi 1.02,2013-02-18 20:24:00,
2013-02-18 15:34:00,46.0,19.9,29.62,North,357,1.0,5.4,35,0.00,,,-99.99,FreeWX-Wi 1.02,2013-02-18 20:34:00,
2013-02-18 15:44:00,45.9,19.8,29.62,North,357,1.0,5.8,35,0.00,,,-99.99,FreeWX-Wi 1.02,2013-02-18 20:44:00,
2013-02-18 15:54:00,45.9,19.8,29.62,North,357,1.0,4.0,35,0.00,,,-99.99,FreeWX-Wi 1.02,2013-02-18 20:54:00,
2013-02-18 16:04:00,46.0,19.9,29.62,North,357,1.0,5.8,35,0.00,,,-99.99,FreeWX-Wi 1.02,2013-02-18 21:04:00,
2013-02-18 16:14:00,45.5,19.4,29.62,North,357,1.0,4.9,35,0.00,,,-99.99,FreeWX-Wi 1.02,2013-02-18 21:14:00,
2013-02-18 16:24:00,45.5,19.4,29.62,North,357,1.0,5.4,35,0.00,,,-99.99,FreeWX-Wi 1.02,2013-02-18 21:24:00,
2013-02-18 16:34:00,45.1,19.2,29.62,North,357,1.0,5.8,35,0.00,,,-99.99,FreeWX-Wi 1.02,2013-02-18 21:34:00,
2013-02-18 16:44:00,44.8,18.9,29.62,North,357,1.0,4.9,35,0.00,,,-99.99,FreeWX-Wi 1.02,2013-02-18 21:44:00,
2013-02-18 16:54:00,44.2,19.0,29.62,North,357,2.0,5.8,36,0.00,,,-99.99,FreeWX-Wi 1.02,2013-02-18 21:54:00,
2013-02-18 17:04:00,43.3,18.1,29.62,North,357,1.0,3.6,36,0.00,,,-99.99,FreeWX-Wi 1.02,2013-02-18 22:04:00,
2013-02-18 17:14:00,42.8,18.3,29.62,North,-999,0.0,0.0,37,0.00,,,-99.99,FreeWX-Wi 1.02,2013-02-18 22:14:00,
2013-02-18 17:24:00,42.3,18.5,29.62,North,-999,0.0,0.0,38,0.00,,,-99.99,FreeWX-Wi 1.02,2013-02-18 22:24:00,
2013-02-18 17:34:00,41.7,18.0,29.62,North,-999,0.0,3.6,38,0.00,,,-99.99,FreeWX-Wi 1.02,2013-02-18 22:34:00,
2013-02-18 17:44:00,41.4,17.6,29.62,North,-999,0.0,3.6,38,0.00,,,-99.99,FreeWX-Wi 1.02,2013-02-18 22:44:00,
2013-02-18 17:54:00,41.0,17.4,29.62,North,-999,0.0,0.0,38,0.00,,,-99.99,FreeWX-Wi 1.02,2013-02-18 22:54:00,
2013-02-18 18:04:00,40.5,17.4,29.62,North,-999,0.0,0.0,39,0.00,,,-99.99,FreeWX-Wi 1.02,2013-02-18 23:04:00,
2013-02-18 18:14:00,40.1,17.2,29.62,North,-999,0.0,0.0,39,0.00,,,-99.99,FreeWX-Wi 1.02,2013-02-18 23:14:00,
2013-02-18 18:24:00,39.7,16.9,29.65,North,-999,0.0,0.0,39,0.00,,,-99.99,FreeWX-Wi 1.02,2013-02-18 23:24:00,
2013-02-18 18:34:00,39.2,16.3,29.65,North,-999,0.0,0.0,39,0.00,,,-99.99,FreeWX-Wi 1.02,2013-02-18 23:34:00,
2013-02-18 18:44:00,38.7,16.5,29.62,North,-999,0.0,0.0,40,0.00,,,-99.99,FreeWX-Wi 1.02,2013-02-18 23:44:00,
2013-02-18 18:54:00,38.3,16.2,29.62,North,-999,0.0,0.0,40,0.00,,,-99.99,FreeWX-Wi 1.02,2013-02-18 23:54:00,
2013-02-18 19:04:00,37.9,15.8,29.62,North,-999,0.0,0.0,40,0.00,,,-99.99,FreeWX-Wi 1.02,2013-02-19 00:04:00,
2013-02-18 19:14:00,37.6,15.4,29.65,North,-999,0.0,0.0,40,0.00,,,-99.99,FreeWX-Wi 1.02,2013-02-19 00:14:00,
2013-02-18 19:24:00,37.2,15.8,29.65,North,-999,0.0,0.0,41,0.00,,,-99.99,FreeWX-Wi 1.02,2013-02-19 00:24:00,
2013-02-18 19:34:00,37.0,15.6,29.65,North,-999,0.0,0.0,41,0.00,,,-99.99,FreeWX-Wi 1.02,2013-02-19 00:34:00,
2013-02-18 19:44:00,37.0,15.6,29.62,North,-999,0.0,0.0,41,0.00,,,-99.99,FreeWX-Wi 1.02,2013-02-19 00:44:00,
2013-02-18 19:54:00,36.9,15.4,29.62,North,-999,0.0,2.7,41,0.00,,,-99.99,FreeWX-Wi 1.02,2013-02-19 00:54:00,
2013-02-18 20:14:00,36.7,15.3,29.62,North,357,1.0,3.1,41,0.00,,,-99.99,FreeWX-Wi 1.02,2013-02-19 01:14:00,
2013-02-18 20:24:00,36.5,15.1,29.62,North,357,1.0,2.2,41,0.00,,,-99.99,FreeWX-Wi 1.02,2013-02-19 01:24:00,
2013-02-18 20:34:00,36.5,15.1,29.62,North,-999,0.0,0.0,41,0.00,,,-99.99,FreeWX-Wi 1.02,2013-02-19 01:34:00,
2013-02-18 20:44:00,36.3,14.9,29.62,North,-999,0.0,4.5,41,0.00,,,-99.99,FreeWX-Wi 1.02,2013-02-19 01:44:00,
2013-02-18 20:54:00,36.3,14.9,29.62,North,-999,0.0,0.0,41,0.00,,,-99.99,FreeWX-Wi 1.02,2013-02-19 01:54:00,
2013-02-18 21:04:00,36.3,14.9,29.62,North,-999,0.0,4.0,41,0.00,,,-99.99,FreeWX-Wi 1.02,2013-02-19 02:04:00,
2013-02-18 21:14:00,36.7,15.3,29.62,North,357,1.0,4.0,41,0.00,,,-99.99,FreeWX-Wi 1.02,2013-02-19 02:14:00,
2013-02-18 21:24:00,36.5,15.1,29.62,North,357,2.0,3.6,41,0.00,,,-99.99,FreeWX-Wi 1.02,2013-02-19 02:24:00,
2013-02-18 21:34:00,36.3,15.4,29.62,North,357,1.0,4.0,42,0.00,,,-99.99,FreeWX-Wi 1.02,2013-02-19 02:34:00,
2013-02-18 21:44:00,36.1,15.3,29.62,North,357,1.0,3.1,42,0.00,,,-99.99,FreeWX-Wi 1.02,2013-02-19 02:44:00,
2013-02-18 21:54:00,36.0,15.6,29.62,North,357,1.0,3.1,43,0.00,,,-99.99,FreeWX-Wi 1.02,2013-02-19 02:54:00,
2013-02-18 22:14:00,35.8,15.4,29.62,North,-999,0.0,3.1,43,0.00,,,-99.99,FreeWX-Wi 1.02,2013-02-19 03:14:00,
2013-02-18 22:24:00,35.6,15.8,29.59,North,-999,0.0,3.6,44,0.00,,,-99.99,FreeWX-Wi 1.02,2013-02-19 03:24:00,
2013-02-18 22:34:00,35.6,15.8,29.59,North,-999,0.0,2.7,44,0.00,,,-99.99,FreeWX-Wi 1.02,2013-02-19 03:34:00,
2013-02-18 22:44:00,35.6,15.8,29.59,North,-999,0.0,0.0,44,0.00,,,-99.99,FreeWX-Wi 1.02,2013-02-19 03:44:00,
2013-02-18 22:54:00,35.2,16.0,29.59,North,-999,0.0,3.6,45,0.00,,,-99.99,FreeWX-Wi 1.02,2013-02-19 03:54:00,
2013-02-18 23:04:00,35.1,16.3,29.59,North,-999,0.0,0.0,46,0.00,,,-99.99,FreeWX-Wi 1.02,2013-02-19 04:04:00,
2013-02-18 23:14:00,35.1,16.9,29.59,North,-999,0.0,0.0,47,0.00,,,-99.99,FreeWX-Wi 1.02,2013-02-19 04:14:00,
2013-02-18 23:24:00,34.9,16.7,29.59,North,-999,0.0,0.0,47,0.00,,,-99.99,FreeWX-Wi 1.02,2013-02-19 04:24:00,
2013-02-18 23:34:00,34.7,16.5,29.59,North,-999,0.0,0.0,47,0.00,,,-99.99,FreeWX-Wi 1.02,2013-02-19 04:34:00,
2013-02-18 23:44:00,34.5,17.4,29.59,North,-999,0.0,4.5,49,0.00,,,-99.99,FreeWX-Wi 1.02,2013-02-19 04:44:00,
2013-02-18 23:54:00,34.3,17.6,29.59,North,-999,0.0,0.0,50,0.00,,,-99.99,FreeWX-Wi 1.02,2013-02-19 04:54:00,